createdAt,value
2023-05-08T00:02:34.734Z,100563.50
2023-05-08T00:07:38.611Z,100565.09
2023-05-08T00:12:41.455Z,100547.25
2023-05-08T00:17:44.623Z,100563.81
2023-05-08T00:22:48.911Z,100563.59
2023-05-08T00:27:52.193Z,100561.41
2023-05-08T00:32:55.090Z,100565.69
2023-05-08T00:37:57.827Z,100558.16
2023-05-08T00:43:01.070Z,100564.25
2023-05-08T00:48:04.755Z,100558.72
2023-05-08T00:53:07.962Z,100556.47
2023-05-08T00:58:12.349Z,100574.94
2023-05-08T01:03:15.910Z,100576.72
2023-05-08T01:08:18.968Z,100580.19
2023-05-08T01:13:56.052Z,100586.41
2023-05-08T01:19:34.189Z,100590.38
2023-05-08T01:25:01.094Z,100589.59
2023-05-08T01:30:28.267Z,100598.97
2023-05-08T01:35:45.469Z,100603.06
2023-05-08T01:41:02.469Z,100601.41
2023-05-08T01:46:14.792Z,100594.22
2023-05-08T01:51:25.702Z,100600.91
2023-05-08T01:56:30.302Z,100608.16
2023-05-08T02:01:34.917Z,100603.56
2023-05-08T02:06:39.018Z,100611.75
2023-05-08T02:11:44.595Z,100607.44
2023-05-08T02:16:50.842Z,100617.31
2023-05-08T02:21:56.203Z,100617.56
2023-05-08T02:27:00.969Z,100628.56
2023-05-08T02:32:08.783Z,100625.59
2023-05-08T02:37:13.317Z,100630.31
2023-05-08T02:42:16.728Z,100615.66
2023-05-08T02:47:39.439Z,100617.59
2023-05-08T02:52:50.879Z,100620.31
2023-05-08T02:58:15.893Z,100626.84
2023-05-08T03:03:41.077Z,100627.53
2023-05-08T03:08:47.551Z,100632.66
2023-05-08T03:13:56.262Z,100630.81
2023-05-08T03:19:05.567Z,100621.56
2023-05-08T03:24:09.825Z,100628.50
2023-05-08T03:29:15.689Z,100627.88
2023-05-08T03:34:21.864Z,100624.91
2023-05-08T03:39:27.020Z,100635.47
2023-05-08T03:44:31.051Z,100641.44
2023-05-08T03:49:35.237Z,100642.66
2023-05-08T03:54:38.204Z,100650.19
2023-05-08T03:59:54.734Z,100645.25
2023-05-08T04:05:39.884Z,100650.91
2023-05-08T04:11:18.148Z,100656.47
2023-05-08T04:16:28.687Z,100665.94
2023-05-08T04:21:35.744Z,100665.94
2023-05-08T04:26:40.930Z,100669.59
2023-05-08T04:31:45.546Z,100686.56
2023-05-08T04:36:48.727Z,100685.19
2023-05-08T04:41:52.751Z,100695.91
2023-05-08T04:46:56.127Z,100706.06
2023-05-08T04:51:59.326Z,100708.13
2023-05-08T04:57:02.483Z,100717.69
2023-05-08T05:02:08.401Z,100716.88
2023-05-08T05:07:12.156Z,100717.56
2023-05-08T05:12:18.220Z,100736.22
2023-05-08T05:17:21.725Z,100726.13
2023-05-08T05:22:24.721Z,100727.09
2023-05-08T05:27:27.777Z,100735.97
2023-05-08T05:32:30.827Z,100740.47
2023-05-08T05:37:33.624Z,100747.19
2023-05-08T05:42:36.517Z,100748.63
2023-05-08T05:47:44.081Z,100749.84
2023-05-08T05:52:47.327Z,100749.53
2023-05-08T05:57:50.571Z,100758.53
2023-05-08T06:02:53.821Z,100762.50
2023-05-08T06:07:57.394Z,100758.38
2023-05-08T06:13:00.770Z,100755.75
2023-05-08T06:18:03.736Z,100753.28
2023-05-08T06:23:06.998Z,100755.13
2023-05-08T06:28:10.072Z,100749.50
2023-05-08T06:33:12.893Z,100763.50
2023-05-08T06:38:16.444Z,100763.25
2023-05-08T06:43:19.371Z,100759.84
2023-05-08T06:48:22.477Z,100757.13
2023-05-08T06:53:25.570Z,100764.16
2023-05-08T06:58:28.572Z,100770.38
2023-05-08T07:03:31.332Z,100760.22
2023-05-08T07:08:35.155Z,100766.22
2023-05-08T07:13:38.027Z,100768.38
2023-05-08T07:18:41.305Z,100772.41
2023-05-08T07:23:44.427Z,100764.72
2023-05-08T07:28:47.495Z,100764.06
2023-05-08T07:33:50.509Z,100763.06
2023-05-08T07:38:53.612Z,100764.19
2023-05-08T07:43:56.756Z,100765.28
2023-05-08T07:48:59.573Z,100762.47
2023-05-08T07:54:02.635Z,100763.84
2023-05-08T07:59:05.785Z,100763.41
2023-05-08T08:04:08.945Z,100760.66
2023-05-08T08:09:12.401Z,100768.16
2023-05-08T08:14:15.212Z,100760.63
2023-05-08T08:19:18.149Z,100768.41
2023-05-08T08:24:21.187Z,100764.38
2023-05-08T08:29:24.326Z,100759.69
2023-05-08T08:34:27.544Z,100763.84
2023-05-08T08:39:34.489Z,100757.81
2023-05-08T08:44:39.254Z,100745.59
2023-05-08T08:49:51.192Z,100754.25
2023-05-08T08:54:57.082Z,100745.34
2023-05-08T09:00:05.433Z,100761.34
2023-05-08T09:05:09.889Z,100750.34
2023-05-08T09:10:15.810Z,100749.13
2023-05-08T09:15:19.851Z,100749.19
2023-05-08T09:20:23.437Z,100728.56
2023-05-08T09:25:26.590Z,100735.59
2023-05-08T09:30:29.459Z,100724.91
2023-05-08T09:35:37.244Z,100736.41
2023-05-08T09:40:40.296Z,100725.47
2023-05-08T09:45:43.369Z,100715.00
2023-05-08T09:50:46.485Z,100726.13
2023-05-08T09:55:49.486Z,100721.41
2023-05-08T10:00:52.406Z,100718.06
2023-05-08T10:06:14.028Z,100717.81
2023-05-08T10:11:19.804Z,100706.94
2023-05-08T10:16:23.335Z,100702.28
2023-05-08T10:21:29.677Z,100690.06
2023-05-08T10:26:38.171Z,100697.38
2023-05-08T10:31:46.126Z,100686.41
2023-05-08T10:36:54.124Z,100680.84
2023-05-08T10:41:57.798Z,100689.91
2023-05-08T10:47:14.817Z,100679.38
2023-05-08T10:52:21.525Z,100683.53
2023-05-08T10:57:24.907Z,100675.25
2023-05-08T11:02:36.998Z,100674.63
2023-05-08T11:08:01.197Z,100668.00
2023-05-08T11:13:05.612Z,100657.84
2023-05-08T11:18:11.852Z,100658.47
2023-05-08T11:23:32.289Z,100658.41
2023-05-08T11:28:58.962Z,100647.72
2023-05-08T11:34:02.074Z,100649.44
2023-05-08T11:39:15.588Z,100658.94
2023-05-08T11:44:23.916Z,100642.84
2023-05-08T11:49:29.471Z,100652.00
2023-05-08T11:54:33.872Z,100666.16
2023-05-08T11:59:37.695Z,100658.38
2023-05-08T12:04:46.264Z,100659.50
2023-05-08T12:09:49.637Z,100652.66
2023-05-08T12:14:52.760Z,100639.34
2023-05-08T12:19:56.763Z,100638.66
2023-05-08T12:24:59.804Z,100650.13
2023-05-08T12:30:08.279Z,100642.69
2023-05-08T12:35:13.519Z,100637.47
2023-05-08T12:40:55.753Z,100632.31
2023-05-08T12:45:58.863Z,100636.44
2023-05-08T12:51:04.545Z,100640.28
2023-05-08T12:56:07.652Z,100640.31
2023-05-08T13:01:16.581Z,100636.03
2023-05-08T13:06:21.815Z,100633.69
2023-05-08T13:11:33.480Z,100640.25
2023-05-08T13:16:50.517Z,100643.03
2023-05-08T13:21:53.684Z,100629.34
2023-05-08T13:26:56.607Z,100624.59
2023-05-08T13:31:59.669Z,100625.31
2023-05-08T13:37:02.840Z,100632.16
2023-05-08T13:42:05.847Z,100630.91
2023-05-08T13:47:10.326Z,100631.28
2023-05-08T13:52:13.478Z,100626.88
2023-05-08T13:57:16.662Z,100627.59
2023-05-08T14:02:20.102Z,100629.03
2023-05-08T14:07:23.277Z,100629.28
2023-05-08T14:12:26.212Z,100629.88
2023-05-08T14:17:28.995Z,100623.31
2023-05-08T14:22:32.072Z,100624.31
2023-05-08T14:27:35.151Z,100628.75
2023-05-08T14:32:38.210Z,100637.66
2023-05-08T14:37:41.370Z,100630.84
2023-05-08T14:42:44.490Z,100638.88
2023-05-08T14:47:47.599Z,100638.00
2023-05-08T14:52:51.100Z,100651.00
2023-05-08T14:57:54.177Z,100647.91
2023-05-08T15:02:57.362Z,100645.63
2023-05-08T15:08:02.705Z,100655.66
2023-05-08T15:13:05.821Z,100652.88
2023-05-08T15:18:09.387Z,100652.66
2023-05-08T15:23:12.517Z,100667.91
2023-05-08T15:28:15.455Z,100667.03
2023-05-08T15:33:18.634Z,100666.03
2023-05-08T15:38:21.615Z,100675.81
2023-05-08T15:43:24.631Z,100669.75
2023-05-08T15:48:27.960Z,100668.75
2023-05-08T15:53:30.975Z,100671.94
2023-05-08T15:58:34.674Z,100669.44
2023-05-08T16:03:37.494Z,100673.91
2023-05-08T16:08:40.648Z,100674.78
2023-05-08T16:13:43.804Z,100677.66
2023-05-08T16:18:46.745Z,100679.44
2023-05-08T16:23:49.886Z,100679.06
2023-05-08T16:28:52.874Z,100694.91
2023-05-08T16:33:55.894Z,100706.69
2023-05-08T16:38:59.024Z,100702.78
2023-05-08T16:44:02.122Z,100712.47
2023-05-08T16:49:05.110Z,100712.81
2023-05-08T16:54:07.876Z,100726.44
2023-05-08T16:59:10.877Z,100739.34
2023-05-08T17:04:16.396Z,100747.72
2023-05-08T17:09:19.376Z,100753.97
2023-05-08T17:14:22.352Z,100763.97
2023-05-08T17:19:25.920Z,100774.88
2023-05-08T17:24:32.566Z,100787.97
2023-05-08T17:29:35.876Z,100799.47
2023-05-08T17:34:38.698Z,100814.84
2023-05-08T17:39:41.619Z,100820.00
2023-05-08T17:44:44.634Z,100826.72
2023-05-08T17:49:48.003Z,100848.03
2023-05-08T17:54:51.806Z,100846.09
2023-05-08T17:59:54.905Z,100845.81
2023-05-08T18:04:58.040Z,100867.72
2023-05-08T18:10:01.306Z,100882.56
2023-05-08T18:15:08.253Z,100886.94
2023-05-08T18:20:12.048Z,100895.59
2023-05-08T18:25:15.635Z,100911.59
2023-05-08T18:30:18.677Z,100919.56
2023-05-08T18:35:21.826Z,100924.25
2023-05-08T18:40:24.913Z,100932.38
2023-05-08T18:45:28.166Z,100943.03
2023-05-08T18:50:31.131Z,100951.50
2023-05-08T18:55:34.151Z,100962.09
2023-05-08T19:00:37.178Z,100963.22
2023-05-08T19:05:42.220Z,100975.03
2023-05-08T19:10:45.888Z,100979.44
2023-05-08T19:15:48.946Z,100985.22
2023-05-08T19:20:52.429Z,100991.91
2023-05-08T19:25:55.279Z,100986.31
2023-05-08T19:30:59.051Z,100989.38
2023-05-08T19:36:02.213Z,100989.31
2023-05-08T19:41:05.158Z,100990.06
2023-05-08T19:46:08.480Z,100995.31
2023-05-08T19:51:12.645Z,101001.25
2023-05-08T19:56:15.661Z,100990.94
2023-05-08T20:01:18.853Z,101003.63
2023-05-08T20:06:21.982Z,101004.34
2023-05-08T20:11:25.001Z,101007.03
2023-05-08T20:16:28.173Z,101011.00
2023-05-08T20:21:32.489Z,101012.94
2023-05-08T20:26:35.710Z,101007.38
2023-05-08T20:31:40.933Z,101004.06
2023-05-08T20:36:45.284Z,101006.38
2023-05-08T20:41:48.379Z,101006.97
2023-05-08T20:46:51.886Z,101006.72
2023-05-08T20:51:54.894Z,101005.47
2023-05-08T20:56:58.085Z,101009.13
2023-05-08T21:02:01.441Z,101008.44
2023-05-08T21:07:04.470Z,101003.41
2023-05-08T21:12:07.582Z,100999.16
2023-05-08T21:17:10.853Z,101010.75
2023-05-08T21:22:14.446Z,101000.84
2023-05-08T21:27:17.668Z,101001.59
2023-05-08T21:32:20.621Z,100999.66
2023-05-08T21:37:23.885Z,101003.03
2023-05-08T21:42:26.820Z,101003.72
2023-05-08T21:47:29.796Z,101000.13
2023-05-08T21:52:32.771Z,100992.34
2023-05-08T21:57:36.143Z,100989.41
2023-05-08T22:02:39.269Z,100997.38
2023-05-08T22:07:42.263Z,100990.97
2023-05-08T22:12:45.313Z,100987.47
2023-05-08T22:17:49.706Z,100986.75
2023-05-08T22:22:52.782Z,100986.34
2023-05-08T22:27:55.829Z,100988.84
2023-05-08T22:33:00.315Z,100967.91
2023-05-08T22:38:03.334Z,100976.28
2023-05-08T22:43:06.736Z,100979.41
2023-05-08T22:48:10.541Z,100988.44
2023-05-08T22:53:13.842Z,100983.16
2023-05-08T22:58:17.112Z,100980.50
2023-05-08T23:03:20.306Z,100976.72
2023-05-08T23:08:23.442Z,100972.69
2023-05-08T23:13:26.452Z,100985.78
2023-05-08T23:18:29.462Z,100979.22
2023-05-08T23:23:33.408Z,100976.00
2023-05-08T23:28:36.905Z,100978.78
2023-05-08T23:33:40.026Z,100990.50
2023-05-08T23:38:43.106Z,100972.34
2023-05-08T23:43:46.136Z,100961.75
2023-05-08T23:48:49.083Z,100952.28
2023-05-08T23:53:52.044Z,100956.75
2023-05-08T23:58:55.029Z,100951.16
